X  Stänga Metar väderdata för luftfart     ESNL Lycksele Airport
Temperatur
19°C Temperatur
10°C Daggpunkt
56% Fuktighet



Vind
1 M/S
2 MPH
3 KM/T
2 KTS



Lugn
Norr
Nuvarande omständigheter

Delvis molnigt Delvis molnigt
Tryck 1015.92 (hPa) - 30 (inHg)
Synlighet 6.2 (mil) - 10 (km)
Flygplats
Flygplatskod ESNL

Plats: Lycksele Airport
Distans: 35 (km)

Metar:
ESNL 240820Z AUTO VRB02KT 9999 FEW027/// BKN088/// 19/10 Q1016

Tid: 2021-06-24 10:20 CEST